createdAt,value
2023-03-27T00:01:24.452Z,97618.91
2023-03-27T00:03:53.632Z,97610.56
2023-03-27T00:06:25.022Z,97616.41
2023-03-27T00:08:54.924Z,97613.88
2023-03-27T00:11:25.926Z,97613.19
2023-03-27T00:13:54.938Z,97623.56
2023-03-27T00:16:25.498Z,97630.13
2023-03-27T00:18:54.290Z,97637.31
2023-03-27T00:21:22.998Z,97643.88
2023-03-27T00:23:51.336Z,97647.13
2023-03-27T00:26:22.062Z,97653.16
2023-03-27T00:28:50.193Z,97653.06
2023-03-27T00:31:18.261Z,97656.63
2023-03-27T00:33:46.609Z,97668.59
2023-03-27T00:36:15.284Z,97669.31
2023-03-27T00:38:45.924Z,97678.88
2023-03-27T00:41:14.083Z,97692.25
2023-03-27T00:43:45.038Z,97697.97
2023-03-27T00:46:32.673Z,97707.06
2023-03-27T00:49:05.022Z,97722.44
2023-03-27T00:51:33.400Z,97711.41
2023-03-27T00:54:02.593Z,97727.09
2023-03-27T00:56:30.885Z,97726.13
2023-03-27T00:59:04.106Z,97731.63
2023-03-27T01:01:32.435Z,97722.16
2023-03-27T01:04:05.874Z,97733.63
2023-03-27T01:06:34.656Z,97738.94
2023-03-27T01:09:04.610Z,97739.66
2023-03-27T01:11:43.793Z,97752.28
2023-03-27T01:14:26.435Z,97751.59
2023-03-27T01:17:08.430Z,97761.38
2023-03-27T01:19:56.044Z,97764.63
2023-03-27T01:22:57.106Z,97768.03
2023-03-27T01:26:10.038Z,97766.47
2023-03-27T01:28:50.154Z,97783.72
2023-03-27T01:31:35.032Z,97781.91
2023-03-27T01:34:27.205Z,97788.31
2023-03-27T01:37:25.393Z,97801.63
2023-03-27T01:40:01.934Z,97808.84
2023-03-27T01:42:36.914Z,97802.13
2023-03-27T01:45:09.281Z,97809.41
2023-03-27T01:47:45.577Z,97810.84
2023-03-27T01:50:22.649Z,97825.34
2023-03-27T01:52:57.400Z,97829.34
2023-03-27T01:55:31.487Z,97836.78
2023-03-27T01:58:03.664Z,97847.25
2023-03-27T02:00:52.140Z,97863.84
2023-03-27T02:03:27.635Z,97851.31
2023-03-27T02:06:02.603Z,97864.56
2023-03-27T02:08:37.684Z,97870.22
2023-03-27T02:11:29.224Z,97880.41
2023-03-27T02:14:01.291Z,97899.78
2023-03-27T02:16:34.678Z,97885.78
2023-03-27T02:19:11.302Z,97900.47
2023-03-27T02:21:41.837Z,97906.88
2023-03-27T02:24:10.444Z,97921.97
2023-03-27T02:26:41.797Z,97919.91
2023-03-27T02:29:28.408Z,97940.41
2023-03-27T02:32:08.999Z,97941.00
2023-03-27T02:34:57.041Z,97946.31
2023-03-27T02:37:37.200Z,97963.88
2023-03-27T02:40:41.402Z,97968.47
2023-03-27T02:43:59.090Z,97971.81
2023-03-27T02:46:54.587Z,97978.75
2023-03-27T02:49:29.003Z,97983.06
2023-03-27T02:52:01.826Z,98003.06
2023-03-27T02:54:35.834Z,98000.53
2023-03-27T02:57:09.193Z,98009.69
2023-03-27T03:00:06.084Z,98023.72
2023-03-27T03:02:40.859Z,98030.00
2023-03-27T03:05:17.388Z,98037.75
2023-03-27T03:07:46.501Z,98045.50
2023-03-27T03:10:16.068Z,98044.47
2023-03-27T03:12:44.172Z,98057.03
2023-03-27T03:15:14.075Z,98072.81
2023-03-27T03:17:42.627Z,98076.94
2023-03-27T03:20:16.698Z,98070.53
2023-03-27T03:22:44.493Z,98076.38
2023-03-27T03:25:18.120Z,98089.00
2023-03-27T03:27:46.056Z,98092.09
2023-03-27T03:30:16.636Z,98099.84
2023-03-27T03:33:00.237Z,98111.94
2023-03-27T03:35:29.134Z,98111.78
2023-03-27T03:37:59.420Z,98120.91
2023-03-27T03:40:28.458Z,98121.06
2023-03-27T03:42:59.119Z,98128.56
2023-03-27T03:45:31.220Z,98132.56
2023-03-27T03:47:59.744Z,98149.78
2023-03-27T03:50:27.749Z,98153.28
2023-03-27T03:52:55.569Z,98171.69
2023-03-27T03:55:25.691Z,98172.59
2023-03-27T03:57:53.708Z,98175.59
2023-03-27T04:00:26.892Z,98192.53
2023-03-27T04:02:58.927Z,98194.97
2023-03-27T04:05:27.032Z,98206.78
2023-03-27T04:07:59.382Z,98207.34
2023-03-27T04:10:27.585Z,98223.41
2023-03-27T04:12:58.426Z,98223.66
2023-03-27T04:15:36.461Z,98236.03
2023-03-27T04:18:35.271Z,98248.13
2023-03-27T04:21:15.345Z,98259.63
2023-03-27T04:23:43.669Z,98253.41
2023-03-27T04:26:13.500Z,98265.66
2023-03-27T04:29:11.878Z,98272.72
2023-03-27T04:31:58.830Z,98275.00
2023-03-27T04:34:43.325Z,98283.28
2023-03-27T04:37:30.507Z,98288.34
2023-03-27T04:40:18.042Z,98291.94
2023-03-27T04:42:46.504Z,98302.72
2023-03-27T04:45:17.280Z,98309.25
2023-03-27T04:47:48.831Z,98310.75
2023-03-27T04:50:19.169Z,98329.03
2023-03-27T04:52:49.809Z,98335.28
2023-03-27T04:55:19.777Z,98336.78
2023-03-27T04:57:50.584Z,98346.63
2023-03-27T05:00:20.420Z,98345.84
2023-03-27T05:02:50.157Z,98363.16
2023-03-27T05:05:25.822Z,98361.72
2023-03-27T05:07:54.595Z,98372.00
2023-03-27T05:10:25.378Z,98384.13
2023-03-27T05:12:57.200Z,98381.84
2023-03-27T05:15:32.375Z,98394.75
2023-03-27T05:18:02.579Z,98404.13
2023-03-27T05:20:34.166Z,98424.47
2023-03-27T05:23:07.387Z,98426.50
2023-03-27T05:25:35.268Z,98430.88
2023-03-27T05:28:07.529Z,98444.47
2023-03-27T05:30:36.663Z,98447.34
2023-03-27T05:33:17.515Z,98450.66
2023-03-27T05:35:50.191Z,98460.19
2023-03-27T05:38:18.910Z,98473.31
2023-03-27T05:41:07.282Z,98474.31
2023-03-27T05:43:40.198Z,98479.56
2023-03-27T05:46:08.660Z,98487.13
2023-03-27T05:48:38.642Z,98492.94
2023-03-27T05:51:09.389Z,98496.91
2023-03-27T05:53:39.272Z,98496.31
2023-03-27T05:56:18.898Z,98505.25
2023-03-27T05:58:55.673Z,98512.31
2023-03-27T06:01:25.842Z,98507.84
2023-03-27T06:03:56.473Z,98509.78
2023-03-27T06:06:46.528Z,98517.34
2023-03-27T06:09:14.871Z,98526.97
2023-03-27T06:11:50.580Z,98536.41
2023-03-27T06:14:20.573Z,98540.00
2023-03-27T06:17:06.478Z,98538.78
2023-03-27T06:19:49.528Z,98553.38
2023-03-27T06:22:19.445Z,98563.13
2023-03-27T06:24:49.645Z,98576.81
2023-03-27T06:27:21.538Z,98591.09
2023-03-27T06:29:49.497Z,98590.09
2023-03-27T06:32:17.767Z,98601.69
2023-03-27T06:34:51.824Z,98612.97
2023-03-27T06:37:41.058Z,98613.16
2023-03-27T06:40:10.417Z,98611.84
2023-03-27T06:42:40.751Z,98619.06
2023-03-27T06:45:35.692Z,98628.66
2023-03-27T06:48:30.097Z,98633.59
2023-03-27T06:50:58.839Z,98638.16
2023-03-27T06:53:31.178Z,98644.63
2023-03-27T06:56:05.112Z,98657.16
2023-03-27T06:58:53.054Z,98662.00
2023-03-27T07:01:22.676Z,98669.56
2023-03-27T07:03:59.472Z,98678.03
2023-03-27T07:06:48.897Z,98675.84
2023-03-27T07:09:18.550Z,98682.47
2023-03-27T07:11:57.584Z,98677.38
2023-03-27T07:14:25.651Z,98686.13
2023-03-27T07:16:53.722Z,98693.13
2023-03-27T07:19:25.667Z,98699.84
2023-03-27T07:22:02.912Z,98711.66
2023-03-27T07:24:34.745Z,98696.44
2023-03-27T07:27:03.220Z,98708.75
2023-03-27T07:29:34.004Z,98710.56
2023-03-27T07:32:06.934Z,98718.22
2023-03-27T07:34:41.115Z,98716.75
2023-03-27T07:37:29.928Z,98726.25
2023-03-27T07:40:36.900Z,98728.50
2023-03-27T07:43:30.734Z,98730.88
2023-03-27T07:46:01.594Z,98732.50
2023-03-27T07:48:30.399Z,98744.38
2023-03-27T07:51:10.843Z,98748.69
2023-03-27T07:53:43.654Z,98748.81
2023-03-27T07:56:19.399Z,98760.09
2023-03-27T07:58:48.983Z,98772.44
2023-03-27T08:01:21.426Z,98778.75
2023-03-27T08:03:50.491Z,98776.31
2023-03-27T08:06:20.415Z,98782.06
2023-03-27T08:08:50.308Z,98786.16
2023-03-27T08:11:30.180Z,98796.00
2023-03-27T08:13:59.693Z,98803.44
2023-03-27T08:16:29.843Z,98795.88
2023-03-27T08:19:00.752Z,98809.72
2023-03-27T08:21:33.246Z,98812.06
2023-03-27T08:24:02.680Z,98818.34
2023-03-27T08:26:38.150Z,98812.84
2023-03-27T08:29:12.432Z,98822.22
2023-03-27T08:31:41.162Z,98810.25
2023-03-27T08:34:10.198Z,98821.75
2023-03-27T08:36:52.533Z,98822.41
2023-03-27T08:39:22.848Z,98825.13
2023-03-27T08:42:01.012Z,98826.63
2023-03-27T08:44:38.652Z,98832.84
2023-03-27T08:47:17.893Z,98834.97
2023-03-27T08:49:58.518Z,98833.28
2023-03-27T08:52:34.019Z,98846.25
2023-03-27T08:55:13.451Z,98842.63
2023-03-27T08:57:51.756Z,98841.31
2023-03-27T09:00:27.278Z,98853.69
2023-03-27T09:03:16.588Z,98861.63
2023-03-27T09:05:52.951Z,98862.31
2023-03-27T09:08:35.736Z,98864.06
2023-03-27T09:11:11.352Z,98870.78
2023-03-27T09:13:53.451Z,98871.25
2023-03-27T09:16:27.444Z,98875.47
2023-03-27T09:19:04.942Z,98892.84
2023-03-27T09:21:39.476Z,98888.72
2023-03-27T09:24:18.743Z,98884.66
2023-03-27T09:27:18.239Z,98884.88
2023-03-27T09:30:18.582Z,98882.78
2023-03-27T09:32:59.126Z,98878.97
2023-03-27T09:35:28.108Z,98890.31
2023-03-27T09:38:01.228Z,98899.00
2023-03-27T09:40:34.544Z,98893.69
2023-03-27T09:43:09.658Z,98909.75
2023-03-27T09:45:42.317Z,98908.06
2023-03-27T09:48:15.482Z,98905.13
2023-03-27T09:50:49.274Z,98917.47
2023-03-27T09:53:57.393Z,98917.66
2023-03-27T09:56:29.475Z,98927.78
2023-03-27T09:58:59.069Z,98928.41
2023-03-27T10:01:34.577Z,98922.34
2023-03-27T10:04:17.201Z,98921.78
2023-03-27T10:06:49.410Z,98923.06
2023-03-27T10:09:26.775Z,98921.25
2023-03-27T10:12:09.507Z,98929.75
2023-03-27T10:14:41.444Z,98924.78
2023-03-27T10:17:23.536Z,98922.41
2023-03-27T10:20:04.262Z,98928.63
2023-03-27T10:22:39.477Z,98931.75
2023-03-27T10:25:18.622Z,98936.53
2023-03-27T10:27:55.256Z,98936.41
2023-03-27T10:30:35.390Z,98932.19
2023-03-27T10:33:33.939Z,98953.19
2023-03-27T10:36:21.372Z,98943.34
2023-03-27T10:38:58.055Z,98934.97
2023-03-27T10:41:43.518Z,98949.97
2023-03-27T10:44:17.956Z,98942.31
2023-03-27T10:46:54.135Z,98942.19
2023-03-27T10:49:36.477Z,98951.38
2023-03-27T10:52:17.319Z,98949.22
2023-03-27T10:55:20.137Z,98954.09
2023-03-27T10:57:56.792Z,98960.94
2023-03-27T11:00:40.103Z,98959.13
2023-03-27T11:03:18.187Z,98957.25
2023-03-27T11:06:05.482Z,98950.63
2023-03-27T11:08:47.973Z,98952.13
2023-03-27T11:11:22.337Z,98962.06
2023-03-27T11:13:55.275Z,98966.59
2023-03-27T11:16:27.131Z,98969.13
2023-03-27T11:19:27.969Z,98971.31
2023-03-27T11:22:29.910Z,98966.69
2023-03-27T11:25:05.828Z,98964.06
2023-03-27T11:27:40.000Z,98977.91
2023-03-27T11:30:32.353Z,98989.03
2023-03-27T11:33:10.718Z,98984.56
2023-03-27T11:35:48.720Z,98982.22
2023-03-27T11:38:46.500Z,98988.44
2023-03-27T11:41:16.335Z,98993.50
2023-03-27T11:43:45.417Z,98991.91
2023-03-27T11:46:54.068Z,98988.00
2023-03-27T11:50:08.004Z,98983.53
2023-03-27T11:52:53.417Z,98998.91
2023-03-27T11:55:58.685Z,98991.53
2023-03-27T11:58:33.408Z,98988.19
2023-03-27T12:01:09.878Z,98991.25
2023-03-27T12:04:00.994Z,98987.91
2023-03-27T12:06:52.110Z,98993.16
2023-03-27T12:09:41.521Z,98996.72
2023-03-27T12:13:00.803Z,98989.09
2023-03-27T12:15:43.085Z,98994.75
2023-03-27T12:18:27.498Z,98994.84
2023-03-27T12:21:25.078Z,98994.47
2023-03-27T12:24:20.101Z,98990.31
2023-03-27T12:27:28.919Z,98987.75
2023-03-27T12:30:27.574Z,98981.06
2023-03-27T12:33:31.855Z,98988.81
2023-03-27T12:36:03.008Z,98978.13
2023-03-27T12:38:33.588Z,98984.91
2023-03-27T12:41:06.376Z,98990.72
2023-03-27T12:43:58.439Z,98987.59
2023-03-27T12:47:08.457Z,98985.53
2023-03-27T12:49:48.164Z,98994.25
2023-03-27T12:52:27.059Z,98994.75
2023-03-27T12:55:25.211Z,98994.22
2023-03-27T12:58:00.650Z,98999.59
2023-03-27T13:00:54.865Z,99014.16
2023-03-27T13:04:05.709Z,99017.16
2023-03-27T13:06:47.174Z,99017.00
2023-03-27T13:09:33.914Z,99013.25
2023-03-27T13:12:21.521Z,99021.53
2023-03-27T13:15:20.943Z,99023.50
2023-03-27T13:18:02.496Z,99039.59
2023-03-27T13:20:47.067Z,99079.94
2023-03-27T13:23:45.332Z,99094.84
2023-03-27T13:26:35.555Z,99094.53
2023-03-27T13:29:11.671Z,99083.38
2023-03-27T13:32:01.155Z,99098.56
2023-03-27T13:35:02.390Z,99094.31
2023-03-27T13:37:53.665Z,99095.31
2023-03-27T13:40:32.062Z,99102.03
2023-03-27T13:43:15.641Z,99094.00
2023-03-27T13:45:48.181Z,99112.16
2023-03-27T13:48:59.024Z,99121.94
2023-03-27T13:52:07.990Z,99119.81
2023-03-27T13:55:06.048Z,99120.25
2023-03-27T13:58:21.128Z,99119.69
2023-03-27T14:01:18.009Z,99116.03
2023-03-27T14:04:22.541Z,99116.63
2023-03-27T14:07:21.274Z,99113.59
2023-03-27T14:10:28.414Z,99110.84
2023-03-27T14:13:31.151Z,99100.75
2023-03-27T14:16:38.267Z,99101.78
2023-03-27T14:19:34.443Z,99095.66
2023-03-27T14:22:16.324Z,99099.13
2023-03-27T14:25:04.077Z,99100.69
2023-03-27T14:27:44.570Z,99110.34
2023-03-27T14:30:23.408Z,99108.16
2023-03-27T14:33:29.200Z,99103.16
2023-03-27T14:36:03.974Z,99100.66
2023-03-27T14:38:34.673Z,99108.09
2023-03-27T14:41:05.113Z,99112.19
2023-03-27T14:43:48.555Z,99117.66
2023-03-27T14:46:21.610Z,99109.44
2023-03-27T14:48:54.848Z,99114.69
2023-03-27T14:51:27.148Z,99113.44
2023-03-27T14:54:01.261Z,99108.13
2023-03-27T14:56:47.509Z,99113.91
2023-03-27T14:59:34.970Z,99112.72
2023-03-27T15:02:15.821Z,99122.69
2023-03-27T15:04:44.215Z,99122.78
2023-03-27T15:07:19.740Z,99118.06
2023-03-27T15:10:12.485Z,99127.84
2023-03-27T15:12:59.805Z,99131.75
2023-03-27T15:15:39.566Z,99127.94
2023-03-27T15:18:17.351Z,99135.44
2023-03-27T15:20:50.514Z,99139.13
2023-03-27T15:23:23.039Z,99127.44
2023-03-27T15:25:56.597Z,99129.97
2023-03-27T15:28:30.254Z,99153.25
2023-03-27T15:31:01.740Z,99135.41
2023-03-27T15:33:36.112Z,99123.78
2023-03-27T15:36:10.178Z,99126.03
2023-03-27T15:38:38.990Z,99128.06
2023-03-27T15:41:39.567Z,99133.78
2023-03-27T15:44:23.093Z,99141.13
2023-03-27T15:46:59.622Z,99150.53
2023-03-27T15:49:35.106Z,99150.88
2023-03-27T15:52:30.748Z,99139.28
2023-03-27T15:55:01.901Z,99151.34
2023-03-27T15:57:30.590Z,99153.31
2023-03-27T16:00:05.738Z,99156.81
2023-03-27T16:02:42.320Z,99152.66
2023-03-27T16:05:20.223Z,99155.75
2023-03-27T16:07:49.412Z,99147.63
2023-03-27T16:10:30.957Z,99150.19
2023-03-27T16:13:02.590Z,99147.56
2023-03-27T16:15:33.455Z,99154.56
2023-03-27T16:18:05.097Z,99152.97
2023-03-27T16:20:40.534Z,99151.47
2023-03-27T16:23:08.794Z,99156.03
2023-03-27T16:25:36.967Z,99157.16
2023-03-27T16:28:08.374Z,99172.84
2023-03-27T16:30:38.998Z,99171.56
2023-03-27T16:33:15.786Z,99175.66
2023-03-27T16:35:46.778Z,99164.28
2023-03-27T16:38:14.745Z,99168.63
2023-03-27T16:40:42.951Z,99166.97
2023-03-27T16:43:11.448Z,99170.22
2023-03-27T16:45:39.770Z,99158.34
2023-03-27T16:48:08.261Z,99172.88
2023-03-27T16:50:37.059Z,99180.69
2023-03-27T16:53:06.406Z,99202.56
2023-03-27T16:55:34.595Z,99186.66
2023-03-27T16:58:03.713Z,99193.22
2023-03-27T17:00:34.690Z,99191.59
2023-03-27T17:03:03.734Z,99189.94
2023-03-27T17:05:34.466Z,99182.63
2023-03-27T17:08:04.545Z,99185.69
2023-03-27T17:10:35.663Z,99182.75
2023-03-27T17:13:03.735Z,99185.31
2023-03-27T17:15:32.496Z,99185.66
2023-03-27T17:18:00.638Z,99185.44
2023-03-27T17:20:28.590Z,99181.94
2023-03-27T17:22:57.132Z,99189.81
2023-03-27T17:25:25.527Z,99190.19
2023-03-27T17:27:55.013Z,99187.34
2023-03-27T17:30:36.721Z,99191.13
2023-03-27T17:33:06.994Z,99188.63
2023-03-27T17:35:35.048Z,99192.75
2023-03-27T17:38:03.422Z,99201.66
2023-03-27T17:40:31.504Z,99197.31
2023-03-27T17:43:00.905Z,99217.50
2023-03-27T17:45:28.966Z,99215.34
2023-03-27T17:47:57.045Z,99222.16
2023-03-27T17:50:25.870Z,99228.81
2023-03-27T17:52:54.988Z,99226.22
2023-03-27T17:55:23.022Z,99234.19
2023-03-27T17:58:07.759Z,99237.34
2023-03-27T18:00:42.642Z,99235.75
2023-03-27T18:03:11.523Z,99235.66
2023-03-27T18:05:42.298Z,99242.28
2023-03-27T18:08:13.989Z,99253.97
2023-03-27T18:10:49.032Z,99246.91
2023-03-27T18:13:22.849Z,99247.19
2023-03-27T18:15:55.257Z,99253.38
2023-03-27T18:18:23.373Z,99260.25
2023-03-27T18:20:52.277Z,99261.03
2023-03-27T18:23:20.533Z,99261.59
2023-03-27T18:25:49.197Z,99265.91
2023-03-27T18:28:17.606Z,99268.75
2023-03-27T18:30:46.576Z,99278.00
2023-03-27T18:33:16.466Z,99273.44
2023-03-27T18:35:44.750Z,99277.75
2023-03-27T18:38:14.306Z,99280.25
2023-03-27T18:40:42.471Z,99293.75
2023-03-27T18:43:12.609Z,99300.78
2023-03-27T18:45:41.564Z,99298.16
2023-03-27T18:48:10.351Z,99302.13
2023-03-27T18:50:40.071Z,99301.34
2023-03-27T18:53:08.121Z,99309.31
2023-03-27T18:55:36.398Z,99303.03
2023-03-27T18:58:04.740Z,99306.31
2023-03-27T19:00:33.412Z,99314.13
2023-03-27T19:03:01.658Z,99306.84
2023-03-27T19:05:32.041Z,99320.09
2023-03-27T19:08:01.660Z,99313.66
2023-03-27T19:10:29.621Z,99329.72
2023-03-27T19:13:17.179Z,99338.16
2023-03-27T19:15:51.453Z,99355.19
2023-03-27T19:18:41.058Z,99340.91
2023-03-27T19:21:19.327Z,99343.84
2023-03-27T19:23:55.304Z,99336.97
2023-03-27T19:26:35.214Z,99341.88
2023-03-27T19:29:03.229Z,99338.56
2023-03-27T19:31:31.443Z,99340.84
2023-03-27T19:34:00.105Z,99339.97
2023-03-27T19:36:27.888Z,99335.13
2023-03-27T19:38:57.173Z,99331.69
2023-03-27T19:41:27.129Z,99348.06
2023-03-27T19:43:55.166Z,99348.41
2023-03-27T19:46:24.769Z,99366.28
2023-03-27T19:48:56.042Z,99367.47
2023-03-27T19:51:42.713Z,99370.09
2023-03-27T19:54:15.506Z,99376.66
2023-03-27T19:56:44.113Z,99378.34
2023-03-27T19:59:20.775Z,99366.78
2023-03-27T20:01:56.353Z,99374.06
2023-03-27T20:04:24.614Z,99366.31
2023-03-27T20:06:54.055Z,99372.53
2023-03-27T20:09:23.709Z,99372.22
2023-03-27T20:11:55.166Z,99376.31
2023-03-27T20:14:23.662Z,99366.66
2023-03-27T20:16:52.071Z,99377.09
2023-03-27T20:19:21.971Z,99377.28
2023-03-27T20:21:53.286Z,99377.53
2023-03-27T20:24:22.968Z,99378.75
2023-03-27T20:26:58.412Z,99395.00
2023-03-27T20:29:27.674Z,99390.19
2023-03-27T20:31:55.889Z,99388.72
2023-03-27T20:34:24.353Z,99399.06
2023-03-27T20:36:53.558Z,99406.88
2023-03-27T20:39:49.323Z,99406.47
2023-03-27T20:42:23.457Z,99410.56
2023-03-27T20:44:55.190Z,99417.50
2023-03-27T20:47:23.271Z,99419.66
2023-03-27T20:49:51.254Z,99415.19
2023-03-27T20:52:22.744Z,99426.75
2023-03-27T20:54:52.148Z,99425.50
2023-03-27T20:57:22.531Z,99416.94
2023-03-27T20:59:51.198Z,99418.03
2023-03-27T21:02:20.562Z,99424.34
2023-03-27T21:04:48.686Z,99421.53
2023-03-27T21:07:17.259Z,99426.28
2023-03-27T21:09:47.956Z,99428.31
2023-03-27T21:12:17.137Z,99421.81
2023-03-27T21:14:45.052Z,99425.38
2023-03-27T21:17:15.440Z,99426.06
2023-03-27T21:19:46.054Z,99429.56
2023-03-27T21:22:13.943Z,99428.91
2023-03-27T21:24:42.628Z,99429.06
2023-03-27T21:27:10.521Z,99427.94
2023-03-27T21:29:39.901Z,99427.31
2023-03-27T21:32:08.174Z,99431.63
2023-03-27T21:34:36.155Z,99424.72
2023-03-27T21:37:04.119Z,99430.03
2023-03-27T21:39:32.090Z,99431.88
2023-03-27T21:42:00.438Z,99435.03
2023-03-27T21:44:28.253Z,99435.13
2023-03-27T21:46:57.459Z,99440.97
2023-03-27T21:49:26.955Z,99442.06
2023-03-27T21:51:54.834Z,99442.44
2023-03-27T21:54:22.871Z,99438.28
2023-03-27T21:56:53.447Z,99432.91
2023-03-27T21:59:21.272Z,99439.50
2023-03-27T22:01:49.580Z,99433.25
2023-03-27T22:04:20.552Z,99442.44
2023-03-27T22:06:49.621Z,99449.81
2023-03-27T22:09:17.952Z,99444.09
2023-03-27T22:11:45.885Z,99444.72
2023-03-27T22:14:13.823Z,99448.25
2023-03-27T22:16:42.322Z,99451.69
2023-03-27T22:19:10.929Z,99452.56
2023-03-27T22:21:40.658Z,99460.38
2023-03-27T22:24:09.014Z,99461.81
2023-03-27T22:26:39.775Z,99466.56
2023-03-27T22:29:09.157Z,99468.03
2023-03-27T22:31:37.871Z,99470.66
2023-03-27T22:34:06.727Z,99471.38
2023-03-27T22:36:36.129Z,99470.09
2023-03-27T22:39:06.216Z,99477.56
2023-03-27T22:41:34.087Z,99490.31
2023-03-27T22:44:02.604Z,99489.66
2023-03-27T22:46:30.568Z,99500.13
2023-03-27T22:49:00.838Z,99494.97
2023-03-27T22:51:29.929Z,99496.00
2023-03-27T22:53:57.810Z,99502.69
2023-03-27T22:56:27.152Z,99506.38
2023-03-27T22:58:55.198Z,99506.28
2023-03-27T23:01:23.186Z,99505.03
2023-03-27T23:03:51.126Z,99514.34
2023-03-27T23:06:20.721Z,99515.97
2023-03-27T23:08:49.190Z,99511.97
2023-03-27T23:11:18.097Z,99515.47
2023-03-27T23:13:48.065Z,99518.25
2023-03-27T23:16:16.020Z,99517.88
2023-03-27T23:18:44.019Z,99513.59
2023-03-27T23:21:13.692Z,99515.38
2023-03-27T23:23:41.983Z,99515.19
2023-03-27T23:26:11.032Z,99519.53
2023-03-27T23:28:40.313Z,99518.16
2023-03-27T23:31:12.618Z,99528.78
2023-03-27T23:33:42.735Z,99526.69
2023-03-27T23:36:12.520Z,99522.94
2023-03-27T23:38:41.830Z,99534.09
2023-03-27T23:41:11.371Z,99535.25
2023-03-27T23:43:39.528Z,99544.53
2023-03-27T23:46:10.709Z,99545.19
2023-03-27T23:48:39.822Z,99547.50
2023-03-27T23:51:08.576Z,99543.00
2023-03-27T23:53:38.630Z,99544.44
2023-03-27T23:56:07.361Z,99560.16
2023-03-27T23:58:37.069Z,99553.31
